sensor_id;sensor_type;location;lat;lon;timestamp;P1;durP1;ratioP1;P2;durP2;ratioP2
15673;SDS011;7937;48.090;16.212;2022-10-16T00:01:13;27.67;;;18.47;;
15673;SDS011;7937;48.090;16.212;2022-10-16T00:04:16;28.23;;;20.20;;
15673;SDS011;7937;48.090;16.212;2022-10-16T00:07:18;28.70;;;20.47;;
15673;SDS011;7937;48.090;16.212;2022-10-16T00:10:20;28.70;;;19.93;;
15673;SDS011;7937;48.090;16.212;2022-10-16T00:13:22;233.57;;;101.53;;
15673;SDS011;7937;48.090;16.212;2022-10-16T00:16:24;86.90;;;64.93;;
15673;SDS011;7937;48.090;16.212;2022-10-16T00:19:27;36.97;;;25.73;;
15673;SDS011;7937;48.090;16.212;2022-10-16T00:22:30;25.43;;;18.33;;
15673;SDS011;7937;48.090;16.212;2022-10-16T00:25:32;20.97;;;16.37;;
15673;SDS011;7937;48.090;16.212;2022-10-16T00:28:34;21.43;;;15.97;;
15673;SDS011;7937;48.090;16.212;2022-10-16T00:31:37;27.73;;;15.93;;
15673;SDS011;7937;48.090;16.212;2022-10-16T00:34:39;21.27;;;15.83;;
15673;SDS011;7937;48.090;16.212;2022-10-16T00:37:41;20.93;;;16.20;;
15673;SDS011;7937;48.090;16.212;2022-10-16T00:40:43;19.47;;;15.07;;
15673;SDS011;7937;48.090;16.212;2022-10-16T00:43:46;21.87;;;13.40;;
15673;SDS011;7937;48.090;16.212;2022-10-16T00:46:53;19.03;;;13.63;;
15673;SDS011;7937;48.090;16.212;2022-10-16T00:50:07;20.27;;;13.97;;
15673;SDS011;7937;48.090;16.212;2022-10-16T00:53:12;20.83;;;14.13;;
15673;SDS011;7937;48.090;16.212;2022-10-16T00:56:14;19.20;;;13.77;;
15673;SDS011;7937;48.090;16.212;2022-10-16T00:59:25;20.90;;;14.27;;
15673;SDS011;7937;48.090;16.212;2022-10-16T01:02:29;20.30;;;13.37;;
15673;SDS011;7937;48.090;16.212;2022-10-16T01:05:39;18.57;;;13.90;;
15673;SDS011;7937;48.090;16.212;2022-10-16T01:09:06;24.30;;;16.03;;
15673;SDS011;7937;48.090;16.212;2022-10-16T01:12:10;19.97;;;14.77;;
15673;SDS011;7937;48.090;16.212;2022-10-16T01:18:52;19.37;;;14.33;;
15673;SDS011;7937;48.090;16.212;2022-10-16T01:21:58;22.27;;;14.17;;
15673;SDS011;7937;48.090;16.212;2022-10-16T01:25:02;15.03;;;12.37;;
15673;SDS011;7937;48.090;16.212;2022-10-16T01:28:11;17.40;;;13.10;;
15673;SDS011;7937;48.090;16.212;2022-10-16T01:31:15;13.97;;;11.57;;
15673;SDS011;7937;48.090;16.212;2022-10-16T01:34:33;12.63;;;11.13;;
15673;SDS011;7937;48.090;16.212;2022-10-16T01:37:46;16.50;;;12.63;;
15673;SDS011;7937;48.090;16.212;2022-10-16T01:40:51;14.90;;;12.33;;
15673;SDS011;7937;48.090;16.212;2022-10-16T01:47:10;16.70;;;12.00;;
15673;SDS011;7937;48.090;16.212;2022-10-16T01:50:14;15.57;;;11.60;;
15673;SDS011;7937;48.090;16.212;2022-10-16T01:53:20;15.50;;;12.00;;
15673;SDS011;7937;48.090;16.212;2022-10-16T01:56:23;13.97;;;11.47;;
15673;SDS011;7937;48.090;16.212;2022-10-16T01:59:28;14.50;;;11.63;;
15673;SDS011;7937;48.090;16.212;2022-10-16T02:02:33;17.17;;;13.10;;
15673;SDS011;7937;48.090;16.212;2022-10-16T02:05:43;21.13;;;13.67;;
15673;SDS011;7937;48.090;16.212;2022-10-16T02:08:48;18.70;;;13.33;;
15673;SDS011;7937;48.090;16.212;2022-10-16T02:11:50;16.87;;;12.47;;
15673;SDS011;7937;48.090;16.212;2022-10-16T02:14:55;20.03;;;13.77;;
15673;SDS011;7937;48.090;16.212;2022-10-16T02:17:59;16.53;;;12.27;;
15673;SDS011;7937;48.090;16.212;2022-10-16T02:24:20;18.87;;;13.00;;
15673;SDS011;7937;48.090;16.212;2022-10-16T02:31:16;18.47;;;13.00;;
15673;SDS011;7937;48.090;16.212;2022-10-16T02:34:24;18.73;;;13.30;;
15673;SDS011;7937;48.090;16.212;2022-10-16T02:37:29;18.83;;;12.53;;
15673;SDS011;7937;48.090;16.212;2022-10-16T02:40:32;16.20;;;12.20;;
15673;SDS011;7937;48.090;16.212;2022-10-16T02:43:34;18.00;;;13.20;;
15673;SDS011;7937;48.090;16.212;2022-10-16T02:46:36;16.00;;;12.80;;
15673;SDS011;7937;48.090;16.212;2022-10-16T02:49:38;16.60;;;12.43;;
15673;SDS011;7937;48.090;16.212;2022-10-16T02:52:40;13.57;;;11.30;;
15673;SDS011;7937;48.090;16.212;2022-10-16T02:55:43;14.90;;;11.77;;
15673;SDS011;7937;48.090;16.212;2022-10-16T02:58:45;14.37;;;11.23;;
15673;SDS011;7937;48.090;16.212;2022-10-16T03:01:47;14.00;;;11.47;;
15673;SDS011;7937;48.090;16.212;2022-10-16T03:04:49;14.47;;;10.67;;
15673;SDS011;7937;48.090;16.212;2022-10-16T03:07:51;14.37;;;11.20;;
15673;SDS011;7937;48.090;16.212;2022-10-16T03:10:54;16.47;;;11.20;;
15673;SDS011;7937;48.090;16.212;2022-10-16T03:13:56;14.97;;;11.10;;
15673;SDS011;7937;48.090;16.212;2022-10-16T03:16:57;13.20;;;10.87;;
15673;SDS011;7937;48.090;16.212;2022-10-16T03:20:00;17.27;;;12.00;;
15673;SDS011;7937;48.090;16.212;2022-10-16T03:23:02;12.77;;;10.50;;
15673;SDS011;7937;48.090;16.212;2022-10-16T03:26:04;12.90;;;10.83;;
15673;SDS011;7937;48.090;16.212;2022-10-16T03:29:06;14.70;;;12.13;;
15673;SDS011;7937;48.090;16.212;2022-10-16T03:32:08;13.53;;;10.77;;
15673;SDS011;7937;48.090;16.212;2022-10-16T03:35:10;14.40;;;10.03;;
15673;SDS011;7937;48.090;16.212;2022-10-16T03:38:12;12.77;;;10.07;;
15673;SDS011;7937;48.090;16.212;2022-10-16T03:41:14;12.63;;;9.10;;
15673;SDS011;7937;48.090;16.212;2022-10-16T03:44:16;13.37;;;8.77;;
15673;SDS011;7937;48.090;16.212;2022-10-16T03:47:18;11.63;;;9.07;;
15673;SDS011;7937;48.090;16.212;2022-10-16T03:50:23;10.60;;;8.43;;
15673;SDS011;7937;48.090;16.212;2022-10-16T03:53:25;10.13;;;7.93;;
15673;SDS011;7937;48.090;16.212;2022-10-16T03:56:27;10.87;;;8.40;;
15673;SDS011;7937;48.090;16.212;2022-10-16T03:59:29;9.00;;;7.83;;
15673;SDS011;7937;48.090;16.212;2022-10-16T04:02:31;8.67;;;6.90;;
15673;SDS011;7937;48.090;16.212;2022-10-16T04:05:33;9.80;;;7.93;;
15673;SDS011;7937;48.090;16.212;2022-10-16T04:08:35;11.70;;;9.23;;
15673;SDS011;7937;48.090;16.212;2022-10-16T04:11:38;10.30;;;7.27;;
15673;SDS011;7937;48.090;16.212;2022-10-16T04:14:40;8.83;;;7.10;;
15673;SDS011;7937;48.090;16.212;2022-10-16T04:17:42;8.73;;;7.00;;
15673;SDS011;7937;48.090;16.212;2022-10-16T04:20:44;10.10;;;6.20;;
15673;SDS011;7937;48.090;16.212;2022-10-16T04:23:46;9.40;;;7.90;;
15673;SDS011;7937;48.090;16.212;2022-10-16T04:26:48;8.57;;;7.17;;
15673;SDS011;7937;48.090;16.212;2022-10-16T04:29:50;7.87;;;6.67;;
15673;SDS011;7937;48.090;16.212;2022-10-16T04:32:52;8.60;;;7.13;;
15673;SDS011;7937;48.090;16.212;2022-10-16T04:36:01;10.73;;;7.57;;
15673;SDS011;7937;48.090;16.212;2022-10-16T04:39:05;8.30;;;7.23;;
15673;SDS011;7937;48.090;16.212;2022-10-16T04:42:07;8.40;;;6.83;;
15673;SDS011;7937;48.090;16.212;2022-10-16T04:45:09;8.43;;;6.30;;
15673;SDS011;7937;48.090;16.212;2022-10-16T04:48:17;9.47;;;7.00;;
15673;SDS011;7937;48.090;16.212;2022-10-16T04:51:19;7.87;;;6.50;;
15673;SDS011;7937;48.090;16.212;2022-10-16T04:54:21;10.27;;;6.10;;
15673;SDS011;7937;48.090;16.212;2022-10-16T04:57:23;7.60;;;6.27;;
15673;SDS011;7937;48.090;16.212;2022-10-16T05:00:26;7.43;;;6.17;;
15673;SDS011;7937;48.090;16.212;2022-10-16T05:03:28;12.03;;;5.90;;
15673;SDS011;7937;48.090;16.212;2022-10-16T05:06:35;8.27;;;5.73;;
15673;SDS011;7937;48.090;16.212;2022-10-16T05:09:39;6.43;;;5.57;;
15673;SDS011;7937;48.090;16.212;2022-10-16T05:12:41;6.87;;;5.37;;
15673;SDS011;7937;48.090;16.212;2022-10-16T05:15:46;5.43;;;4.90;;
15673;SDS011;7937;48.090;16.212;2022-10-16T05:18:51;6.27;;;5.33;;
15673;SDS011;7937;48.090;16.212;2022-10-16T05:22:10;6.83;;;5.70;;
15673;SDS011;7937;48.090;16.212;2022-10-16T05:25:12;6.77;;;5.33;;
15673;SDS011;7937;48.090;16.212;2022-10-16T05:28:14;5.77;;;4.50;;
15673;SDS011;7937;48.090;16.212;2022-10-16T05:31:16;5.70;;;4.33;;
15673;SDS011;7937;48.090;16.212;2022-10-16T05:34:18;7.47;;;4.90;;
15673;SDS011;7937;48.090;16.212;2022-10-16T05:37:21;5.80;;;4.53;;
15673;SDS011;7937;48.090;16.212;2022-10-16T05:40:23;5.03;;;4.53;;
15673;SDS011;7937;48.090;16.212;2022-10-16T05:43:26;5.50;;;4.97;;
15673;SDS011;7937;48.090;16.212;2022-10-16T05:46:29;5.67;;;4.60;;
15673;SDS011;7937;48.090;16.212;2022-10-16T05:49:31;7.90;;;6.00;;
15673;SDS011;7937;48.090;16.212;2022-10-16T05:52:36;5.77;;;5.13;;
15673;SDS011;7937;48.090;16.212;2022-10-16T05:55:38;6.57;;;5.13;;
15673;SDS011;7937;48.090;16.212;2022-10-16T05:58:41;8.47;;;4.97;;
15673;SDS011;7937;48.090;16.212;2022-10-16T06:01:46;7.37;;;5.40;;
15673;SDS011;7937;48.090;16.212;2022-10-16T06:04:47;7.50;;;5.60;;
15673;SDS011;7937;48.090;16.212;2022-10-16T06:07:49;6.97;;;5.20;;
15673;SDS011;7937;48.090;16.212;2022-10-16T06:11:04;8.73;;;6.10;;
15673;SDS011;7937;48.090;16.212;2022-10-16T06:14:08;6.63;;;5.67;;
15673;SDS011;7937;48.090;16.212;2022-10-16T06:17:10;9.87;;;5.73;;
15673;SDS011;7937;48.090;16.212;2022-10-16T06:20:12;6.53;;;5.33;;
15673;SDS011;7937;48.090;16.212;2022-10-16T06:23:14;9.10;;;5.53;;
15673;SDS011;7937;48.090;16.212;2022-10-16T06:26:17;6.10;;;4.93;;
15673;SDS011;7937;48.090;16.212;2022-10-16T06:29:22;6.33;;;5.10;;
15673;SDS011;7937;48.090;16.212;2022-10-16T06:32:24;5.83;;;5.07;;
15673;SDS011;7937;48.090;16.212;2022-10-16T06:35:26;5.63;;;4.57;;
15673;SDS011;7937;48.090;16.212;2022-10-16T06:38:28;6.83;;;5.00;;
15673;SDS011;7937;48.090;16.212;2022-10-16T06:41:30;8.77;;;5.80;;
15673;SDS011;7937;48.090;16.212;2022-10-16T06:44:39;7.43;;;6.07;;
15673;SDS011;7937;48.090;16.212;2022-10-16T06:47:41;6.80;;;5.13;;
15673;SDS011;7937;48.090;16.212;2022-10-16T06:50:43;6.87;;;5.47;;
15673;SDS011;7937;48.090;16.212;2022-10-16T06:53:45;7.60;;;4.93;;
15673;SDS011;7937;48.090;16.212;2022-10-16T06:57:06;6.63;;;5.23;;
15673;SDS011;7937;48.090;16.212;2022-10-16T07:00:08;6.07;;;5.10;;
15673;SDS011;7937;48.090;16.212;2022-10-16T07:03:10;7.87;;;5.37;;
15673;SDS011;7937;48.090;16.212;2022-10-16T07:06:13;6.50;;;5.40;;
15673;SDS011;7937;48.090;16.212;2022-10-16T07:09:20;7.43;;;6.20;;
15673;SDS011;7937;48.090;16.212;2022-10-16T07:12:22;8.37;;;5.90;;
15673;SDS011;7937;48.090;16.212;2022-10-16T07:15:24;7.83;;;7.03;;
15673;SDS011;7937;48.090;16.212;2022-10-16T07:18:29;10.87;;;9.10;;
15673;SDS011;7937;48.090;16.212;2022-10-16T07:21:34;12.70;;;10.53;;
15673;SDS011;7937;48.090;16.212;2022-10-16T07:24:39;12.53;;;10.93;;
15673;SDS011;7937;48.090;16.212;2022-10-16T07:27:41;14.53;;;12.30;;
15673;SDS011;7937;48.090;16.212;2022-10-16T07:30:43;16.97;;;14.30;;
15673;SDS011;7937;48.090;16.212;2022-10-16T07:33:45;54.33;;;17.10;;
15673;SDS011;7937;48.090;16.212;2022-10-16T07:36:49;14.23;;;12.83;;
15673;SDS011;7937;48.090;16.212;2022-10-16T07:39:52;13.23;;;11.93;;
15673;SDS011;7937;48.090;16.212;2022-10-16T07:42:54;16.43;;;13.90;;
15673;SDS011;7937;48.090;16.212;2022-10-16T07:45:56;15.93;;;14.37;;
15673;SDS011;7937;48.090;16.212;2022-10-16T07:49:03;20.37;;;15.50;;
15673;SDS011;7937;48.090;16.212;2022-10-16T07:52:05;18.47;;;16.53;;
15673;SDS011;7937;48.090;16.212;2022-10-16T07:55:07;19.30;;;17.13;;
15673;SDS011;7937;48.090;16.212;2022-10-16T07:58:09;21.63;;;17.87;;
15673;SDS011;7937;48.090;16.212;2022-10-16T08:01:12;20.23;;;16.80;;
15673;SDS011;7937;48.090;16.212;2022-10-16T08:04:16;26.13;;;18.40;;
15673;SDS011;7937;48.090;16.212;2022-10-16T08:07:18;22.40;;;18.73;;
15673;SDS011;7937;48.090;16.212;2022-10-16T08:10:21;29.03;;;19.47;;
15673;SDS011;7937;48.090;16.212;2022-10-16T08:13:24;25.50;;;18.47;;
15673;SDS011;7937;48.090;16.212;2022-10-16T08:16:28;22.17;;;18.67;;
15673;SDS011;7937;48.090;16.212;2022-10-16T08:19:30;20.70;;;18.67;;
15673;SDS011;7937;48.090;16.212;2022-10-16T08:22:35;26.53;;;21.50;;
15673;SDS011;7937;48.090;16.212;2022-10-16T08:25:37;22.30;;;20.00;;
15673;SDS011;7937;48.090;16.212;2022-10-16T08:28:40;22.60;;;19.07;;
15673;SDS011;7937;48.090;16.212;2022-10-16T08:31:42;22.50;;;20.07;;
15673;SDS011;7937;48.090;16.212;2022-10-16T08:34:44;22.50;;;19.70;;
15673;SDS011;7937;48.090;16.212;2022-10-16T08:37:47;23.93;;;21.43;;
15673;SDS011;7937;48.090;16.212;2022-10-16T08:40:49;23.70;;;20.67;;
15673;SDS011;7937;48.090;16.212;2022-10-16T08:47:19;31.23;;;22.13;;
15673;SDS011;7937;48.090;16.212;2022-10-16T08:50:29;31.83;;;24.50;;
15673;SDS011;7937;48.090;16.212;2022-10-16T08:53:38;24.63;;;22.10;;
15673;SDS011;7937;48.090;16.212;2022-10-16T08:56:46;26.67;;;23.10;;
15673;SDS011;7937;48.090;16.212;2022-10-16T08:59:48;25.30;;;22.67;;
15673;SDS011;7937;48.090;16.212;2022-10-16T09:02:52;26.03;;;23.13;;
15673;SDS011;7937;48.090;16.212;2022-10-16T09:16:51;26.37;;;23.57;;
15673;SDS011;7937;48.090;16.212;2022-10-16T09:23:34;24.87;;;21.93;;
15673;SDS011;7937;48.090;16.212;2022-10-16T09:26:38;23.03;;;20.60;;
15673;SDS011;7937;48.090;16.212;2022-10-16T09:29:40;23.83;;;21.43;;
15673;SDS011;7937;48.090;16.212;2022-10-16T09:32:43;21.87;;;19.67;;
15673;SDS011;7937;48.090;16.212;2022-10-16T09:35:48;22.03;;;19.70;;
15673;SDS011;7937;48.090;16.212;2022-10-16T09:39:05;21.07;;;18.97;;
15673;SDS011;7937;48.090;16.212;2022-10-16T09:42:10;21.43;;;19.23;;
15673;SDS011;7937;48.090;16.212;2022-10-16T09:45:20;20.13;;;18.00;;
15673;SDS011;7937;48.090;16.212;2022-10-16T09:48:26;18.80;;;16.97;;
15673;SDS011;7937;48.090;16.212;2022-10-16T09:51:34;17.30;;;15.50;;
15673;SDS011;7937;48.090;16.212;2022-10-16T09:54:38;16.87;;;15.07;;
15673;SDS011;7937;48.090;16.212;2022-10-16T09:57:52;16.87;;;15.30;;
15673;SDS011;7937;48.090;16.212;2022-10-16T10:00:55;16.53;;;14.97;;
15673;SDS011;7937;48.090;16.212;2022-10-16T10:03:57;16.57;;;14.97;;
15673;SDS011;7937;48.090;16.212;2022-10-16T10:07:04;18.43;;;16.60;;
15673;SDS011;7937;48.090;16.212;2022-10-16T10:10:18;17.53;;;15.83;;
15673;SDS011;7937;48.090;16.212;2022-10-16T10:13:24;18.37;;;16.50;;
15673;SDS011;7937;48.090;16.212;2022-10-16T10:16:27;17.63;;;15.93;;
15673;SDS011;7937;48.090;16.212;2022-10-16T10:19:29;17.37;;;15.67;;
15673;SDS011;7937;48.090;16.212;2022-10-16T10:25:41;21.73;;;19.63;;
15673;SDS011;7937;48.090;16.212;2022-10-16T10:32:07;21.63;;;19.43;;
15673;SDS011;7937;48.090;16.212;2022-10-16T10:35:18;21.47;;;19.27;;
15673;SDS011;7937;48.090;16.212;2022-10-16T10:38:32;23.20;;;20.80;;
15673;SDS011;7937;48.090;16.212;2022-10-16T10:52:12;22.37;;;20.07;;
15673;SDS011;7937;48.090;16.212;2022-10-16T10:55:40;23.53;;;21.13;;
15673;SDS011;7937;48.090;16.212;2022-10-16T10:58:55;26.70;;;24.00;;
15673;SDS011;7937;48.090;16.212;2022-10-16T11:02:35;24.40;;;21.90;;
15673;SDS011;7937;48.090;16.212;2022-10-16T11:05:43;27.00;;;23.50;;
15673;SDS011;7937;48.090;16.212;2022-10-16T11:08:50;27.13;;;24.23;;
15673;SDS011;7937;48.090;16.212;2022-10-16T11:12:05;29.17;;;24.67;;
15673;SDS011;7937;48.090;16.212;2022-10-16T11:15:15;28.33;;;24.97;;
15673;SDS011;7937;48.090;16.212;2022-10-16T11:18:24;28.50;;;25.40;;
15673;SDS011;7937;48.090;16.212;2022-10-16T11:21:51;30.03;;;26.83;;
15673;SDS011;7937;48.090;16.212;2022-10-16T11:28:38;33.43;;;27.13;;
15673;SDS011;7937;48.090;16.212;2022-10-16T11:31:49;32.37;;;27.43;;
15673;SDS011;7937;48.090;16.212;2022-10-16T11:34:59;34.73;;;28.23;;
15673;SDS011;7937;48.090;16.212;2022-10-16T11:38:11;31.47;;;27.63;;
15673;SDS011;7937;48.090;16.212;2022-10-16T11:47:44;32.13;;;26.27;;
15673;SDS011;7937;48.090;16.212;2022-10-16T11:51:21;30.07;;;26.50;;
15673;SDS011;7937;48.090;16.212;2022-10-16T11:54:33;26.80;;;23.90;;
15673;SDS011;7937;48.090;16.212;2022-10-16T11:57:54;26.97;;;24.00;;
15673;SDS011;7937;48.090;16.212;2022-10-16T12:04:33;24.67;;;21.10;;
15673;SDS011;7937;48.090;16.212;2022-10-16T12:07:49;25.03;;;22.37;;
15673;SDS011;7937;48.090;16.212;2022-10-16T12:11:24;24.17;;;21.53;;
15673;SDS011;7937;48.090;16.212;2022-10-16T12:14:36;26.83;;;22.93;;
15673;SDS011;7937;48.090;16.212;2022-10-16T12:18:01;23.33;;;20.83;;
15673;SDS011;7937;48.090;16.212;2022-10-16T12:21:03;21.90;;;19.60;;
15673;SDS011;7937;48.090;16.212;2022-10-16T12:24:28;25.70;;;22.73;;
15673;SDS011;7937;48.090;16.212;2022-10-16T12:27:34;22.10;;;19.83;;
15673;SDS011;7937;48.090;16.212;2022-10-16T12:30:37;22.70;;;20.20;;
15673;SDS011;7937;48.090;16.212;2022-10-16T12:33:39;24.10;;;21.50;;
15673;SDS011;7937;48.090;16.212;2022-10-16T12:36:44;31.57;;;26.13;;
15673;SDS011;7937;48.090;16.212;2022-10-16T12:39:46;29.70;;;26.63;;
15673;SDS011;7937;48.090;16.212;2022-10-16T12:42:50;31.40;;;28.13;;
15673;SDS011;7937;48.090;16.212;2022-10-16T12:46:03;33.67;;;30.23;;
15673;SDS011;7937;48.090;16.212;2022-10-16T12:55:42;29.80;;;26.70;;
15673;SDS011;7937;48.090;16.212;2022-10-16T13:02:43;33.93;;;30.40;;
15673;SDS011;7937;48.090;16.212;2022-10-16T13:23:23;30.67;;;27.30;;
15673;SDS011;7937;48.090;16.212;2022-10-16T13:26:57;33.10;;;28.90;;
15673;SDS011;7937;48.090;16.212;2022-10-16T13:30:07;29.43;;;26.43;;
15673;SDS011;7937;48.090;16.212;2022-10-16T13:36:48;34.13;;;29.03;;
15673;SDS011;7937;48.090;16.212;2022-10-16T13:43:29;31.60;;;24.77;;
15673;SDS011;7937;48.090;16.212;2022-10-16T13:46:35;28.57;;;25.67;;
15673;SDS011;7937;48.090;16.212;2022-10-16T13:49:37;30.73;;;27.50;;
15673;SDS011;7937;48.090;16.212;2022-10-16T13:52:39;27.70;;;24.67;;
15673;SDS011;7937;48.090;16.212;2022-10-16T13:55:42;30.50;;;27.30;;
15673;SDS011;7937;48.090;16.212;2022-10-16T13:58:44;34.17;;;28.43;;
15673;SDS011;7937;48.090;16.212;2022-10-16T14:01:48;30.80;;;27.13;;
15673;SDS011;7937;48.090;16.212;2022-10-16T14:04:55;33.37;;;29.33;;
15673;SDS011;7937;48.090;16.212;2022-10-16T14:07:59;31.23;;;27.90;;
15673;SDS011;7937;48.090;16.212;2022-10-16T14:11:02;35.67;;;26.53;;
15673;SDS011;7937;48.090;16.212;2022-10-16T14:14:04;33.20;;;29.07;;
15673;SDS011;7937;48.090;16.212;2022-10-16T14:17:12;31.47;;;28.17;;
15673;SDS011;7937;48.090;16.212;2022-10-16T14:20:15;33.30;;;28.77;;
15673;SDS011;7937;48.090;16.212;2022-10-16T14:23:19;31.90;;;27.00;;
15673;SDS011;7937;48.090;16.212;2022-10-16T14:26:40;33.27;;;28.73;;
15673;SDS011;7937;48.090;16.212;2022-10-16T14:30:01;29.87;;;26.77;;
15673;SDS011;7937;48.090;16.212;2022-10-16T14:33:24;30.13;;;26.83;;
15673;SDS011;7937;48.090;16.212;2022-10-16T14:36:27;33.07;;;27.90;;
15673;SDS011;7937;48.090;16.212;2022-10-16T14:39:31;32.20;;;27.00;;
15673;SDS011;7937;48.090;16.212;2022-10-16T14:42:33;29.80;;;26.60;;
15673;SDS011;7937;48.090;16.212;2022-10-16T14:45:36;33.83;;;29.10;;
15673;SDS011;7937;48.090;16.212;2022-10-16T14:48:46;30.10;;;27.00;;
15673;SDS011;7937;48.090;16.212;2022-10-16T14:51:51;31.50;;;27.10;;
15673;SDS011;7937;48.090;16.212;2022-10-16T14:54:53;37.07;;;27.90;;
15673;SDS011;7937;48.090;16.212;2022-10-16T14:57:57;28.20;;;25.10;;
15673;SDS011;7937;48.090;16.212;2022-10-16T15:01:01;35.30;;;31.20;;
15673;SDS011;7937;48.090;16.212;2022-10-16T15:04:03;33.23;;;28.70;;
15673;SDS011;7937;48.090;16.212;2022-10-16T15:07:06;27.60;;;24.70;;
15673;SDS011;7937;48.090;16.212;2022-10-16T15:10:09;38.77;;;29.83;;
15673;SDS011;7937;48.090;16.212;2022-10-16T15:13:12;32.50;;;26.23;;
15673;SDS011;7937;48.090;16.212;2022-10-16T15:16:15;33.97;;;28.40;;
15673;SDS011;7937;48.090;16.212;2022-10-16T15:19:18;34.40;;;29.57;;
15673;SDS011;7937;48.090;16.212;2022-10-16T15:22:20;28.93;;;25.83;;
15673;SDS011;7937;48.090;16.212;2022-10-16T15:28:26;38.53;;;29.07;;
15673;SDS011;7937;48.090;16.212;2022-10-16T15:31:28;36.67;;;27.33;;
15673;SDS011;7937;48.090;16.212;2022-10-16T15:34:30;31.27;;;25.83;;
15673;SDS011;7937;48.090;16.212;2022-10-16T15:37:32;38.27;;;27.13;;
15673;SDS011;7937;48.090;16.212;2022-10-16T15:40:34;35.87;;;29.10;;
15673;SDS011;7937;48.090;16.212;2022-10-16T15:43:36;32.40;;;26.80;;
15673;SDS011;7937;48.090;16.212;2022-10-16T15:46:39;30.03;;;24.33;;
15673;SDS011;7937;48.090;16.212;2022-10-16T15:49:41;34.03;;;27.43;;
15673;SDS011;7937;48.090;16.212;2022-10-16T15:52:43;34.73;;;27.93;;
15673;SDS011;7937;48.090;16.212;2022-10-16T15:55:45;36.77;;;28.77;;
15673;SDS011;7937;48.090;16.212;2022-10-16T15:58:47;30.77;;;26.20;;
15673;SDS011;7937;48.090;16.212;2022-10-16T16:01:49;31.87;;;27.00;;
15673;SDS011;7937;48.090;16.212;2022-10-16T16:04:51;33.10;;;28.33;;
15673;SDS011;7937;48.090;16.212;2022-10-16T16:07:53;34.43;;;27.33;;
15673;SDS011;7937;48.090;16.212;2022-10-16T16:10:59;30.57;;;26.60;;
15673;SDS011;7937;48.090;16.212;2022-10-16T16:14:02;33.70;;;27.43;;
15673;SDS011;7937;48.090;16.212;2022-10-16T16:17:04;35.50;;;30.40;;
15673;SDS011;7937;48.090;16.212;2022-10-16T16:20:06;34.50;;;28.57;;
15673;SDS011;7937;48.090;16.212;2022-10-16T16:23:09;31.93;;;27.10;;
15673;SDS011;7937;48.090;16.212;2022-10-16T16:26:13;29.50;;;26.23;;
15673;SDS011;7937;48.090;16.212;2022-10-16T16:29:28;35.73;;;26.40;;
15673;SDS011;7937;48.090;16.212;2022-10-16T16:32:30;32.17;;;26.40;;
15673;SDS011;7937;48.090;16.212;2022-10-16T16:35:32;34.93;;;27.73;;
15673;SDS011;7937;48.090;16.212;2022-10-16T16:38:34;33.10;;;28.10;;
15673;SDS011;7937;48.090;16.212;2022-10-16T16:41:36;31.93;;;27.27;;
15673;SDS011;7937;48.090;16.212;2022-10-16T16:44:39;33.10;;;27.13;;
15673;SDS011;7937;48.090;16.212;2022-10-16T16:47:41;33.47;;;26.90;;
15673;SDS011;7937;48.090;16.212;2022-10-16T16:50:45;28.53;;;25.43;;
15673;SDS011;7937;48.090;16.212;2022-10-16T16:53:49;31.40;;;25.47;;
15673;SDS011;7937;48.090;16.212;2022-10-16T16:56:53;32.70;;;26.60;;
15673;SDS011;7937;48.090;16.212;2022-10-16T16:59:56;30.67;;;26.67;;
15673;SDS011;7937;48.090;16.212;2022-10-16T17:02:59;31.53;;;25.60;;
15673;SDS011;7937;48.090;16.212;2022-10-16T17:06:03;30.73;;;27.10;;
15673;SDS011;7937;48.090;16.212;2022-10-16T17:09:09;30.10;;;24.93;;
15673;SDS011;7937;48.090;16.212;2022-10-16T17:12:15;34.70;;;27.00;;
15673;SDS011;7937;48.090;16.212;2022-10-16T17:15:18;33.33;;;27.37;;
15673;SDS011;7937;48.090;16.212;2022-10-16T17:18:21;31.90;;;26.70;;
15673;SDS011;7937;48.090;16.212;2022-10-16T17:21:28;36.97;;;27.67;;
15673;SDS011;7937;48.090;16.212;2022-10-16T17:24:35;30.93;;;25.80;;
15673;SDS011;7937;48.090;16.212;2022-10-16T17:27:38;36.10;;;28.50;;
15673;SDS011;7937;48.090;16.212;2022-10-16T17:30:41;34.87;;;27.73;;
15673;SDS011;7937;48.090;16.212;2022-10-16T17:33:44;37.40;;;26.50;;
15673;SDS011;7937;48.090;16.212;2022-10-16T17:36:48;33.80;;;27.90;;
15673;SDS011;7937;48.090;16.212;2022-10-16T17:39:51;36.73;;;28.80;;
15673;SDS011;7937;48.090;16.212;2022-10-16T17:42:55;31.60;;;25.00;;
15673;SDS011;7937;48.090;16.212;2022-10-16T17:46:00;28.33;;;24.37;;
15673;SDS011;7937;48.090;16.212;2022-10-16T17:49:04;35.67;;;29.93;;
15673;SDS011;7937;48.090;16.212;2022-10-16T17:52:07;36.80;;;27.10;;
15673;SDS011;7937;48.090;16.212;2022-10-16T17:55:12;35.53;;;27.37;;
15673;SDS011;7937;48.090;16.212;2022-10-16T17:58:15;32.53;;;27.03;;
15673;SDS011;7937;48.090;16.212;2022-10-16T18:01:19;32.80;;;25.50;;
15673;SDS011;7937;48.090;16.212;2022-10-16T18:04:29;27.40;;;24.30;;
15673;SDS011;7937;48.090;16.212;2022-10-16T18:07:32;30.10;;;24.97;;
15673;SDS011;7937;48.090;16.212;2022-10-16T18:10:43;39.63;;;25.97;;
15673;SDS011;7937;48.090;16.212;2022-10-16T18:13:55;30.90;;;25.90;;
15673;SDS011;7937;48.090;16.212;2022-10-16T18:16:59;30.97;;;25.97;;
15673;SDS011;7937;48.090;16.212;2022-10-16T18:20:06;34.63;;;26.40;;
15673;SDS011;7937;48.090;16.212;2022-10-16T18:23:09;34.77;;;24.47;;
15673;SDS011;7937;48.090;16.212;2022-10-16T18:26:13;29.00;;;24.17;;
15673;SDS011;7937;48.090;16.212;2022-10-16T18:29:16;34.00;;;25.77;;
15673;SDS011;7937;48.090;16.212;2022-10-16T18:32:19;30.13;;;24.77;;
15673;SDS011;7937;48.090;16.212;2022-10-16T18:35:21;33.70;;;25.53;;
15673;SDS011;7937;48.090;16.212;2022-10-16T18:38:24;30.43;;;23.50;;
15673;SDS011;7937;48.090;16.212;2022-10-16T18:41:28;33.20;;;25.07;;
15673;SDS011;7937;48.090;16.212;2022-10-16T18:44:33;33.07;;;25.63;;
15673;SDS011;7937;48.090;16.212;2022-10-16T18:47:39;30.00;;;24.10;;
15673;SDS011;7937;48.090;16.212;2022-10-16T18:50:43;29.90;;;23.70;;
15673;SDS011;7937;48.090;16.212;2022-10-16T18:53:49;31.80;;;24.40;;
15673;SDS011;7937;48.090;16.212;2022-10-16T18:56:54;32.87;;;26.10;;
15673;SDS011;7937;48.090;16.212;2022-10-16T19:00:02;30.27;;;25.20;;
15673;SDS011;7937;48.090;16.212;2022-10-16T19:03:08;32.50;;;25.83;;
15673;SDS011;7937;48.090;16.212;2022-10-16T19:06:12;27.43;;;21.93;;
15673;SDS011;7937;48.090;16.212;2022-10-16T19:09:18;33.40;;;25.30;;
15673;SDS011;7937;48.090;16.212;2022-10-16T19:12:23;36.20;;;27.10;;
15673;SDS011;7937;48.090;16.212;2022-10-16T19:15:26;30.43;;;25.50;;
15673;SDS011;7937;48.090;16.212;2022-10-16T19:18:30;32.00;;;25.87;;
15673;SDS011;7937;48.090;16.212;2022-10-16T19:21:39;34.57;;;25.53;;
15673;SDS011;7937;48.090;16.212;2022-10-16T19:24:43;29.43;;;24.37;;
15673;SDS011;7937;48.090;16.212;2022-10-16T19:27:46;36.63;;;25.07;;
15673;SDS011;7937;48.090;16.212;2022-10-16T19:30:49;32.70;;;25.27;;
15673;SDS011;7937;48.090;16.212;2022-10-16T19:33:54;31.73;;;25.87;;
15673;SDS011;7937;48.090;16.212;2022-10-16T19:37:00;33.93;;;26.10;;
15673;SDS011;7937;48.090;16.212;2022-10-16T19:40:02;28.27;;;24.53;;
15673;SDS011;7937;48.090;16.212;2022-10-16T19:43:05;32.43;;;24.00;;
15673;SDS011;7937;48.090;16.212;2022-10-16T19:46:09;30.67;;;25.83;;
15673;SDS011;7937;48.090;16.212;2022-10-16T19:49:22;31.33;;;24.83;;